PWSweather.com
Personal Weather Stations
Station Observations

EefdeEefdeNL

Lat: 52.1737185, Lon: 6.2268684

Elevation: 26

Station Type: Davis Vantage Vue

http://www.weerstation-eefde.nl

High Low Average
Temperature 72.5°F22.5°C 54.0°F12.2°C 63.8°F17.7°C
Dew Point 59.7°F15.4°C 51.4°F10.8°C 55.3°F12.9°C
Winds 5.0 mph 8.0 kmh Calm Calm 2.0 mph SE3.2 kmh SE
Wind Gusts 14.0 mph22.5 kmh -- 5.0 mph8.0 kmh
Humidity 94% 55% 75%
Pressure 30.14 in1020.7 mb 30.02 in1016.6 mb -
Precipitation 0.02 in0.5 mm - -
Hour Temp Dew Point Humidity Winds Wind Gusts Pressure Precip Precip Rate Daily Precip Total
12:00 AM 55.6°F13.1°C 52.4°F11.3°C 89% Calm Calm -- 30.02 in1016.6 mb 0.00 in0.0 mm 0.00 in0.0 mm 0.00 in0.0 mm
12:15 AM 55.8°F13.2°C 53.2°F11.8°C 91% Calm Calm -- 30.03 in1016.9 mb 0.00 in0.0 mm 0.00 in0.0 mm 0.00 in0.0 mm
12:30 AM 55.9°F13.3°C 53.0°F11.7°C 90% Calm Calm -- 30.03 in1016.9 mb 0.00 in0.0 mm 0.00 in0.0 mm 0.00 in0.0 mm
12:45 AM 55.4°F13.0°C 52.5°F11.4°C 90% Calm Calm -- 30.03 in1016.9 mb 0.00 in0.0 mm 0.00 in0.0 mm 0.00 in0.0 mm
01:00 AM 54.9°F12.7°C 52.3°F11.3°C 91% Calm Calm -- 30.03 in1016.9 mb 0.00 in0.0 mm 0.00 in0.0 mm 0.00 in0.0 mm
01:15 AM 54.0°F12.2°C 51.4°F10.8°C 91% Calm Calm -- 30.04 in1017.3 mb 0.00 in0.0 mm 0.00 in0.0 mm 0.00 in0.0 mm
01:30 AM 54.0°F12.2°C 51.7°F10.9°C 92% Calm Calm -- 30.05 in1017.6 mb 0.00 in0.0 mm 0.00 in0.0 mm 0.00 in0.0 mm
01:45 AM 55.2°F12.9°C 52.9°F11.6°C 92% Calm Calm -- 30.05 in1017.6 mb 0.00 in0.0 mm 0.00 in0.0 mm 0.00 in0.0 mm
02:00 AM 54.7°F12.6°C 52.1°F11.2°C 91% Calm Calm -- 30.04 in1017.3 mb 0.00 in0.0 mm 0.00 in0.0 mm 0.00 in0.0 mm
02:15 AM 54.1°F12.3°C 51.6°F10.9°C 91% Calm Calm -- 30.04 in1017.3 mb 0.00 in0.0 mm 0.00 in0.0 mm 0.00 in0.0 mm
02:30 AM 54.0°F12.2°C 51.7°F10.9°C 92% Calm Calm -- 30.03 in1016.9 mb 0.00 in0.0 mm 0.00 in0.0 mm 0.00 in0.0 mm
02:45 AM 54.0°F12.2°C 51.7°F10.9°C 92% Calm Calm -- 30.04 in1017.3 mb 0.00 in0.0 mm 0.00 in0.0 mm 0.00 in0.0 mm
03:00 AM 54.9°F12.7°C 52.9°F11.6°C 93% Calm Calm -- 30.03 in1016.9 mb 0.00 in0.0 mm 0.00 in0.0 mm 0.00 in0.0 mm
03:15 AM 55.4°F13.0°C 53.1°F11.7°C 92% Calm Calm -- 30.03 in1016.9 mb 0.00 in0.0 mm 0.00 in0.0 mm 0.00 in0.0 mm
03:30 AM 55.6°F13.1°C 53.6°F12.0°C 93% Calm Calm -- 30.04 in1017.3 mb 0.00 in0.0 mm 0.00 in0.0 mm 0.00 in0.0 mm
03:45 AM 55.2°F12.9°C 52.9°F11.6°C 92% Calm Calm -- 30.04 in1017.3 mb 0.00 in0.0 mm 0.00 in0.0 mm 0.00 in0.0 mm
04:00 AM 54.9°F12.7°C 52.6°F11.4°C 92% Calm Calm -- 30.04 in1017.3 mb 0.00 in0.0 mm 0.00 in0.0 mm 0.00 in0.0 mm
04:15 AM 54.3°F12.4°C 52.0°F11.1°C 92% Calm Calm -- 30.05 in1017.6 mb 0.00 in0.0 mm 0.00 in0.0 mm 0.00 in0.0 mm
04:30 AM 54.3°F12.4°C 52.3°F11.3°C 93% Calm Calm -- 30.05 in1017.6 mb 0.00 in0.0 mm 0.00 in0.0 mm 0.00 in0.0 mm
04:45 AM 54.7°F12.6°C 52.7°F11.5°C 93% Calm Calm -- 30.05 in1017.6 mb 0.00 in0.0 mm 0.00 in0.0 mm 0.00 in0.0 mm
05:00 AM 55.6°F13.1°C 53.9°F12.2°C 94% Calm Calm 2.0 mph3.2 kmh 30.05 in1017.6 mb 0.00 in0.0 mm 0.00 in0.0 mm 0.00 in0.0 mm
05:15 AM 55.9°F13.3°C 53.9°F12.2°C 93% Calm Calm -- 30.04 in1017.3 mb 0.00 in0.0 mm 0.00 in0.0 mm 0.00 in0.0 mm
05:30 AM 56.3°F13.5°C 54.3°F12.4°C 93% Calm Calm 3.0 mph4.8 kmh 30.04 in1017.3 mb 0.00 in0.0 mm 0.00 in0.0 mm 0.00 in0.0 mm
05:45 AM 56.5°F13.6°C 54.5°F12.5°C 93% Calm Calm -- 30.05 in1017.6 mb 0.00 in0.0 mm 0.00 in0.0 mm 0.00 in0.0 mm
06:00 AM 57.6°F14.2°C 55.3°F12.9°C 92% 1.0 mph S1.6 kmh S 4.0 mph6.4 kmh 30.05 in1017.6 mb 0.00 in0.0 mm 0.00 in0.0 mm 0.00 in0.0 mm
06:15 AM 58.8°F14.9°C 55.9°F13.3°C 90% 1.0 mph S1.6 kmh S 3.0 mph4.8 kmh 30.05 in1017.6 mb 0.00 in0.0 mm 0.00 in0.0 mm 0.00 in0.0 mm
06:30 AM 59.7°F15.4°C 55.8°F13.2°C 87% 3.0 mph S4.8 kmh S 7.0 mph11.3 kmh 30.05 in1017.6 mb 0.00 in0.0 mm 0.00 in0.0 mm 0.00 in0.0 mm
06:45 AM 60.8°F16.0°C 55.9°F13.3°C 84% 1.0 mph SSW1.6 kmh SSW 6.0 mph9.7 kmh 30.06 in1017.9 mb 0.00 in0.0 mm 0.00 in0.0 mm 0.00 in0.0 mm
07:00 AM 61.7°F16.5°C 56.1°F13.4°C 82% 2.0 mph S3.2 kmh S 6.0 mph9.7 kmh 30.06 in1017.9 mb 0.00 in0.0 mm 0.00 in0.0 mm 0.00 in0.0 mm
07:15 AM 62.6°F17.0°C 56.7°F13.7°C 81% 2.0 mph S3.2 kmh S 7.0 mph11.3 kmh 30.06 in1017.9 mb 0.00 in0.0 mm 0.00 in0.0 mm 0.00 in0.0 mm
07:30 AM 64.0°F17.8°C 56.7°F13.7°C 77% 1.0 mph S1.6 kmh S 6.0 mph9.7 kmh 30.07 in1018.3 mb 0.00 in0.0 mm 0.00 in0.0 mm 0.00 in0.0 mm
07:45 AM 64.4°F18.0°C 55.6°F13.1°C 73% 3.0 mph SW4.8 kmh SW 7.0 mph11.3 kmh 30.07 in1018.3 mb 0.00 in0.0 mm 0.00 in0.0 mm 0.00 in0.0 mm
08:00 AM 64.8°F18.2°C 55.1°F12.8°C 71% 4.0 mph SW6.4 kmh SW 9.0 mph14.5 kmh 30.07 in1018.3 mb 0.00 in0.0 mm 0.00 in0.0 mm 0.00 in0.0 mm
08:15 AM 66.2°F19.0°C 56.5°F13.6°C 71% 1.0 mph WSW1.6 kmh WSW 6.0 mph9.7 kmh 30.07 in1018.3 mb 0.00 in0.0 mm 0.00 in0.0 mm 0.00 in0.0 mm
08:30 AM 66.6°F19.2°C 55.7°F13.2°C 68% 3.0 mph SW4.8 kmh SW 7.0 mph11.3 kmh 30.07 in1018.3 mb 0.00 in0.0 mm 0.00 in0.0 mm 0.00 in0.0 mm
08:45 AM 66.9°F19.4°C 55.6°F13.1°C 67% 4.0 mph SSW6.4 kmh SSW 9.0 mph14.5 kmh 30.07 in1018.3 mb 0.00 in0.0 mm 0.00 in0.0 mm 0.00 in0.0 mm
09:00 AM 67.1°F19.5°C 55.4°F13.0°C 66% 4.0 mph SW6.4 kmh SW 11.0 mph17.7 kmh 30.08 in1018.6 mb 0.00 in0.0 mm 0.00 in0.0 mm 0.00 in0.0 mm
09:15 AM 67.5°F19.7°C 55.7°F13.2°C 66% 3.0 mph SW4.8 kmh SW 8.0 mph12.9 kmh 30.08 in1018.6 mb 0.00 in0.0 mm 0.00 in0.0 mm 0.00 in0.0 mm
09:30 AM 68.2°F20.1°C 55.5°F13.1°C 64% 4.0 mph SSW6.4 kmh SSW 10.0 mph16.1 kmh 30.08 in1018.6 mb 0.00 in0.0 mm 0.00 in0.0 mm 0.00 in0.0 mm
09:45 AM 68.7°F20.4°C 56.5°F13.6°C 65% 4.0 mph SW6.4 kmh SW 11.0 mph17.7 kmh 30.08 in1018.6 mb 0.00 in0.0 mm 0.00 in0.0 mm 0.00 in0.0 mm
10:00 AM 68.9°F20.5°C 57.1°F13.9°C 66% 5.0 mph SSW8.0 kmh SSW 10.0 mph16.1 kmh 30.09 in1019.0 mb 0.00 in0.0 mm 0.00 in0.0 mm 0.00 in0.0 mm
10:15 AM 69.6°F20.9°C 56.9°F13.8°C 64% 5.0 mph SSW8.0 kmh SSW 12.0 mph19.3 kmh 30.09 in1019.0 mb 0.00 in0.0 mm 0.00 in0.0 mm 0.00 in0.0 mm
10:30 AM 69.8°F21.0°C 56.2°F13.4°C 62% 5.0 mph S8.0 kmh S 13.0 mph20.9 kmh 30.09 in1019.0 mb 0.00 in0.0 mm 0.00 in0.0 mm 0.00 in0.0 mm
10:45 AM 68.9°F20.5°C 56.2°F13.4°C 64% 5.0 mph SSW8.0 kmh SSW 14.0 mph22.5 kmh 30.10 in1019.3 mb 0.00 in0.0 mm 0.00 in0.0 mm 0.00 in0.0 mm
11:00 AM 68.9°F20.5°C 56.2°F13.4°C 64% 4.0 mph SW6.4 kmh SW 8.0 mph12.9 kmh 30.10 in1019.3 mb 0.00 in0.0 mm 0.00 in0.0 mm 0.00 in0.0 mm
11:15 AM 69.3°F20.7°C 56.1°F13.4°C 63% 5.0 mph SW8.0 kmh SW 12.0 mph19.3 kmh 30.10 in1019.3 mb 0.00 in0.0 mm 0.00 in0.0 mm 0.00 in0.0 mm
11:30 AM 69.1°F20.6°C 56.4°F13.6°C 64% 5.0 mph SSW8.0 kmh SSW 11.0 mph17.7 kmh 30.10 in1019.3 mb 0.00 in0.0 mm 0.00 in0.0 mm 0.00 in0.0 mm
11:45 AM 70.9°F21.6°C 55.8°F13.2°C 59% 5.0 mph S8.0 kmh S 14.0 mph22.5 kmh 30.10 in1019.3 mb 0.00 in0.0 mm 0.00 in0.0 mm 0.00 in0.0 mm
12:00 PM 70.0°F21.1°C 56.4°F13.6°C 62% 4.0 mph S6.4 kmh S 12.0 mph19.3 kmh 30.10 in1019.3 mb 0.00 in0.0 mm 0.00 in0.0 mm 0.00 in0.0 mm
12:15 PM 70.0°F21.1°C 56.8°F13.8°C 63% 5.0 mph SW8.0 kmh SW 12.0 mph19.3 kmh 30.10 in1019.3 mb 0.00 in0.0 mm 0.00 in0.0 mm 0.00 in0.0 mm
12:30 PM 69.8°F21.0°C 56.6°F13.7°C 63% 3.0 mph SW4.8 kmh SW 9.0 mph14.5 kmh 30.10 in1019.3 mb 0.00 in0.0 mm 0.00 in0.0 mm 0.00 in0.0 mm
12:45 PM 68.9°F20.5°C 56.2°F13.4°C 64% 4.0 mph S6.4 kmh S 8.0 mph12.9 kmh 30.11 in1019.6 mb 0.00 in0.0 mm 0.00 in0.0 mm 0.00 in0.0 mm
01:00 PM 68.2°F20.1°C 55.1°F12.8°C 63% 5.0 mph SSW8.0 kmh SSW 12.0 mph19.3 kmh 30.11 in1019.6 mb 0.00 in0.0 mm 0.00 in0.0 mm 0.00 in0.0 mm
01:15 PM 68.9°F20.5°C 56.6°F13.7°C 65% 4.0 mph SSW6.4 kmh SSW 10.0 mph16.1 kmh 30.11 in1019.6 mb 0.00 in0.0 mm 0.00 in0.0 mm 0.00 in0.0 mm
01:30 PM 69.3°F20.7°C 56.1°F13.4°C 63% 3.0 mph SW4.8 kmh SW 11.0 mph17.7 kmh 30.11 in1019.6 mb 0.00 in0.0 mm 0.00 in0.0 mm 0.00 in0.0 mm
01:45 PM 69.6°F20.9°C 56.9°F13.8°C 64% 3.0 mph SSW4.8 kmh SSW 8.0 mph12.9 kmh 30.11 in1019.6 mb 0.00 in0.0 mm 0.00 in0.0 mm 0.00 in0.0 mm
02:00 PM 69.6°F20.9°C 56.0°F13.3°C 62% 4.0 mph SSW6.4 kmh SSW 12.0 mph19.3 kmh 30.11 in1019.6 mb 0.00 in0.0 mm 0.00 in0.0 mm 0.00 in0.0 mm
02:15 PM 69.8°F21.0°C 56.6°F13.7°C 63% 4.0 mph SW6.4 kmh SW 9.0 mph14.5 kmh 30.11 in1019.6 mb 0.00 in0.0 mm 0.00 in0.0 mm 0.00 in0.0 mm
02:30 PM 68.2°F20.1°C 56.8°F13.8°C 67% 2.0 mph SW3.2 kmh SW 6.0 mph9.7 kmh 30.12 in1020.0 mb 0.00 in0.0 mm 0.00 in0.0 mm 0.00 in0.0 mm
02:45 PM 65.1°F18.4°C 58.4°F14.7°C 79% 4.0 mph S6.4 kmh S 9.0 mph14.5 kmh 30.12 in1020.0 mb 0.02 in0.5 mm 0.08 in2.0 mm 0.02 in0.5 mm
03:00 PM 65.7°F18.7°C 59.0°F15.0°C 79% 1.0 mph S1.6 kmh S 5.0 mph8.0 kmh 30.12 in1020.0 mb 0.02 in0.5 mm 0.00 in0.0 mm 0.02 in0.5 mm
03:15 PM 66.4°F19.1°C 59.7°F15.4°C 79% 1.0 mph S1.6 kmh S 5.0 mph8.0 kmh 30.12 in1020.0 mb 0.02 in0.5 mm 0.00 in0.0 mm 0.02 in0.5 mm
03:30 PM 67.1°F19.5°C 58.2°F14.6°C 73% 2.0 mph S3.2 kmh S 6.0 mph9.7 kmh 30.12 in1020.0 mb 0.02 in0.5 mm 0.00 in0.0 mm 0.02 in0.5 mm
03:45 PM 68.9°F20.5°C 59.1°F15.1°C 71% 1.0 mph S1.6 kmh S 6.0 mph9.7 kmh 30.12 in1020.0 mb 0.00 in0.0 mm 0.00 in0.0 mm 0.02 in0.5 mm
04:00 PM 69.8°F21.0°C 59.2°F15.1°C 69% 2.0 mph SSW3.2 kmh SSW 6.0 mph9.7 kmh 30.12 in1020.0 mb 0.00 in0.0 mm 0.00 in0.0 mm 0.02 in0.5 mm
04:15 PM 69.3°F20.7°C 58.7°F14.8°C 69% 2.0 mph S3.2 kmh S 5.0 mph8.0 kmh 30.12 in1020.0 mb 0.00 in0.0 mm 0.00 in0.0 mm 0.02 in0.5 mm
04:30 PM 68.7°F20.4°C 57.7°F14.3°C 68% 3.0 mph SSW4.8 kmh SSW 8.0 mph12.9 kmh 30.12 in1020.0 mb 0.00 in0.0 mm 0.00 in0.0 mm 0.02 in0.5 mm
04:45 PM 68.4°F20.2°C 57.8°F14.3°C 69% 2.0 mph S3.2 kmh S 6.0 mph9.7 kmh 30.12 in1020.0 mb 0.00 in0.0 mm 0.00 in0.0 mm 0.02 in0.5 mm
05:00 PM 69.8°F21.0°C 56.6°F13.7°C 63% 2.0 mph SSW3.2 kmh SSW 7.0 mph11.3 kmh 30.12 in1020.0 mb 0.00 in0.0 mm 0.00 in0.0 mm 0.02 in0.5 mm
05:15 PM 71.4°F21.9°C 57.3°F14.1°C 61% 3.0 mph SSW4.8 kmh SSW 8.0 mph12.9 kmh 30.11 in1019.6 mb 0.00 in0.0 mm 0.00 in0.0 mm 0.02 in0.5 mm
05:30 PM 70.2°F21.2°C 57.0°F13.9°C 63% 2.0 mph SSW3.2 kmh SSW 6.0 mph9.7 kmh 30.12 in1020.0 mb 0.00 in0.0 mm 0.00 in0.0 mm 0.02 in0.5 mm
05:45 PM 71.2°F21.8°C 57.5°F14.2°C 62% 2.0 mph SSW3.2 kmh SSW 9.0 mph14.5 kmh 30.12 in1020.0 mb 0.00 in0.0 mm 0.00 in0.0 mm 0.02 in0.5 mm
06:00 PM 72.5°F22.5°C 57.8°F14.3°C 60% 2.0 mph SW3.2 kmh SW 7.0 mph11.3 kmh 30.12 in1020.0 mb 0.00 in0.0 mm 0.00 in0.0 mm 0.02 in0.5 mm
06:15 PM 72.3°F22.4°C 55.2°F12.9°C 55% 3.0 mph WSW4.8 kmh WSW 7.0 mph11.3 kmh 30.11 in1019.6 mb 0.00 in0.0 mm 0.00 in0.0 mm 0.02 in0.5 mm
06:30 PM 72.1°F22.3°C 55.1°F12.8°C 55% 2.0 mph SW3.2 kmh SW 8.0 mph12.9 kmh 30.12 in1020.0 mb 0.00 in0.0 mm 0.00 in0.0 mm 0.02 in0.5 mm
06:45 PM 71.8°F22.1°C 55.7°F13.2°C 57% 2.0 mph SW3.2 kmh SW 5.0 mph8.0 kmh 30.12 in1020.0 mb 0.00 in0.0 mm 0.00 in0.0 mm 0.02 in0.5 mm
07:00 PM 71.6°F22.0°C 55.1°F12.8°C 56% 1.0 mph SW1.6 kmh SW 4.0 mph6.4 kmh 30.12 in1020.0 mb 0.00 in0.0 mm 0.00 in0.0 mm 0.02 in0.5 mm
07:15 PM 71.8°F22.1°C 55.2°F12.9°C 56% 1.0 mph SW1.6 kmh SW 6.0 mph9.7 kmh 30.12 in1020.0 mb 0.00 in0.0 mm 0.00 in0.0 mm 0.02 in0.5 mm
07:30 PM 71.1°F21.7°C 55.5°F13.1°C 58% Calm Calm 3.0 mph4.8 kmh 30.12 in1020.0 mb 0.00 in0.0 mm 0.00 in0.0 mm 0.02 in0.5 mm
07:45 PM 70.3°F21.3°C 55.8°F13.2°C 60% Calm Calm 4.0 mph6.4 kmh 30.12 in1020.0 mb 0.00 in0.0 mm 0.00 in0.0 mm 0.02 in0.5 mm
08:00 PM 68.9°F20.5°C 55.8°F13.2°C 63% Calm Calm 2.0 mph3.2 kmh 30.12 in1020.0 mb 0.00 in0.0 mm 0.00 in0.0 mm 0.02 in0.5 mm
08:15 PM 67.8°F19.9°C 55.6°F13.1°C 65% Calm Calm 3.0 mph4.8 kmh 30.12 in1020.0 mb 0.00 in0.0 mm 0.00 in0.0 mm 0.02 in0.5 mm
08:30 PM 66.9°F19.4°C 55.6°F13.1°C 67% Calm Calm -- 30.12 in1020.0 mb 0.00 in0.0 mm 0.00 in0.0 mm 0.02 in0.5 mm
08:45 PM 65.3°F18.5°C 55.7°F13.2°C 71% Calm Calm -- 30.12 in1020.0 mb 0.00 in0.0 mm 0.00 in0.0 mm 0.02 in0.5 mm
09:00 PM 63.1°F17.3°C 55.1°F12.8°C 75% Calm Calm -- 30.13 in1020.3 mb 0.00 in0.0 mm 0.00 in0.0 mm 0.02 in0.5 mm
09:15 PM 62.4°F16.9°C 55.1°F12.8°C 77% Calm Calm -- 30.13 in1020.3 mb 0.00 in0.0 mm 0.00 in0.0 mm 0.02 in0.5 mm
09:30 PM 62.4°F16.9°C 55.1°F12.8°C 77% Calm Calm -- 30.13 in1020.3 mb 0.00 in0.0 mm 0.00 in0.0 mm 0.02 in0.5 mm
09:45 PM 62.1°F16.7°C 55.1°F12.8°C 78% Calm Calm -- 30.13 in1020.3 mb 0.00 in0.0 mm 0.00 in0.0 mm 0.02 in0.5 mm
10:00 PM 61.5°F16.4°C 54.9°F12.7°C 79% Calm Calm -- 30.14 in1020.7 mb 0.00 in0.0 mm 0.00 in0.0 mm 0.02 in0.5 mm
10:15 PM 60.6°F15.9°C 54.8°F12.7°C 81% Calm Calm -- 30.14 in1020.7 mb 0.00 in0.0 mm 0.00 in0.0 mm 0.02 in0.5 mm
10:30 PM 59.5°F15.3°C 54.0°F12.2°C 82% Calm Calm -- 30.14 in1020.7 mb 0.00 in0.0 mm 0.00 in0.0 mm 0.02 in0.5 mm
10:45 PM 58.8°F14.9°C 53.7°F12.1°C 83% Calm Calm -- 30.14 in1020.7 mb 0.00 in0.0 mm 0.00 in0.0 mm 0.02 in0.5 mm
11:00 PM 58.1°F14.5°C 53.6°F12.0°C 85% Calm Calm -- 30.14 in1020.7 mb 0.00 in0.0 mm 0.00 in0.0 mm 0.02 in0.5 mm
11:15 PM 57.9°F14.4°C 54.1°F12.3°C 87% Calm Calm -- 30.14 in1020.7 mb 0.00 in0.0 mm 0.00 in0.0 mm 0.02 in0.5 mm
11:30 PM 58.1°F14.5°C 53.9°F12.2°C 86% Calm Calm -- 30.14 in1020.7 mb 0.00 in0.0 mm 0.00 in0.0 mm 0.02 in0.5 mm
11:45 PM 57.0°F13.9°C 52.9°F11.6°C 86% Calm Calm -- 30.14 in1020.7 mb 0.00 in0.0 mm 0.00 in0.0 mm 0.02 in0.5 mm